createdAt,value
2023-03-03T00:01:05.216Z,66.00
2023-03-03T00:03:33.464Z,66.00
2023-03-03T00:06:02.375Z,66.20
2023-03-03T00:08:30.197Z,66.10
2023-03-03T00:10:57.502Z,66.00
2023-03-03T00:13:26.164Z,65.90
2023-03-03T00:15:54.381Z,66.10
2023-03-03T00:18:30.411Z,65.80
2023-03-03T00:21:01.099Z,65.90
2023-03-03T00:23:37.004Z,65.90
2023-03-03T00:26:29.376Z,66.10
2023-03-03T00:28:59.538Z,66.30
2023-03-03T00:31:34.711Z,65.80
2023-03-03T00:34:28.247Z,65.90
2023-03-03T00:36:57.733Z,66.00
2023-03-03T00:39:37.531Z,65.70
2023-03-03T00:42:14.461Z,65.90
2023-03-03T00:44:44.480Z,65.80
2023-03-03T00:47:26.447Z,65.70
2023-03-03T00:49:58.235Z,65.90
2023-03-03T00:52:29.377Z,65.80
2023-03-03T00:54:56.702Z,65.90
2023-03-03T00:57:24.059Z,65.80
2023-03-03T00:59:52.307Z,66.50
2023-03-03T01:02:20.106Z,65.80
2023-03-03T01:04:51.923Z,65.70
2023-03-03T01:07:19.618Z,65.80
2023-03-03T01:09:46.953Z,65.70
2023-03-03T01:12:15.065Z,65.80
2023-03-03T01:14:42.605Z,65.90
2023-03-03T01:17:09.922Z,65.90
2023-03-03T01:19:37.152Z,66.20
2023-03-03T01:22:04.486Z,66.60
2023-03-03T01:24:31.920Z,67.50
2023-03-03T01:26:59.425Z,66.60
2023-03-03T01:29:26.917Z,66.70
2023-03-03T01:31:54.704Z,66.70
2023-03-03T01:34:22.356Z,66.80
2023-03-03T01:36:49.679Z,67.00
2023-03-03T01:39:17.040Z,66.80
2023-03-03T01:41:44.398Z,66.60
2023-03-03T01:44:15.340Z,66.40
2023-03-03T01:47:11.876Z,66.60
2023-03-03T01:49:59.833Z,66.90
2023-03-03T01:52:37.486Z,67.00
2023-03-03T01:55:10.565Z,67.00
2023-03-03T01:57:42.489Z,66.90
2023-03-03T02:00:11.833Z,67.10
2023-03-03T02:02:43.106Z,67.10
2023-03-03T02:05:11.102Z,67.10
2023-03-03T02:07:38.936Z,66.90
2023-03-03T02:10:13.652Z,66.80
2023-03-03T02:12:45.390Z,66.90
2023-03-03T02:15:36.200Z,67.00
2023-03-03T02:18:14.167Z,67.30
2023-03-03T02:20:52.313Z,67.00
2023-03-03T02:23:38.174Z,67.10
2023-03-03T02:26:22.883Z,67.20
2023-03-03T02:28:55.727Z,67.40
2023-03-03T02:31:26.805Z,67.10
2023-03-03T02:33:55.851Z,67.20
2023-03-03T02:36:26.767Z,67.30
2023-03-03T02:39:02.493Z,67.50
2023-03-03T02:41:56.200Z,68.50
2023-03-03T02:44:30.180Z,67.90
2023-03-03T02:46:59.329Z,67.40
2023-03-03T02:49:32.068Z,67.60
2023-03-03T02:52:00.927Z,67.90
2023-03-03T02:54:30.899Z,68.00
2023-03-03T02:57:00.653Z,68.00
2023-03-03T02:59:28.519Z,67.90
2023-03-03T03:01:59.169Z,67.80
2023-03-03T03:04:27.697Z,67.60
2023-03-03T03:06:56.249Z,67.50
2023-03-03T03:09:26.281Z,67.70
2023-03-03T03:11:55.096Z,67.80
2023-03-03T03:14:25.857Z,67.90
2023-03-03T03:16:55.197Z,67.80
2023-03-03T03:19:22.867Z,67.80
2023-03-03T03:21:50.361Z,67.90
2023-03-03T03:24:18.505Z,67.90
2023-03-03T03:26:52.841Z,68.00
2023-03-03T03:29:21.902Z,68.30
2023-03-03T03:31:49.468Z,68.40
2023-03-03T03:34:16.902Z,68.30
2023-03-03T03:36:46.817Z,68.10
2023-03-03T03:39:16.045Z,67.90
2023-03-03T03:41:46.977Z,67.80
2023-03-03T03:44:14.307Z,67.90
2023-03-03T03:46:41.808Z,67.90
2023-03-03T03:49:11.134Z,68.00
2023-03-03T03:51:41.406Z,68.00
2023-03-03T03:54:11.749Z,68.10
2023-03-03T03:56:39.801Z,68.20
2023-03-03T03:59:07.756Z,68.20
2023-03-03T04:01:35.874Z,68.30
2023-03-03T04:04:04.954Z,68.20
2023-03-03T04:06:32.529Z,68.20
2023-03-03T04:09:00.397Z,68.10
2023-03-03T04:11:29.832Z,68.30
2023-03-03T04:13:57.165Z,68.60
2023-03-03T04:16:24.902Z,68.60
2023-03-03T04:18:52.401Z,68.50
2023-03-03T04:21:21.372Z,68.30
2023-03-03T04:23:49.718Z,68.20
2023-03-03T04:26:18.019Z,68.10
2023-03-03T04:28:46.647Z,68.10
2023-03-03T04:31:14.249Z,68.30
2023-03-03T04:33:42.087Z,68.60
2023-03-03T04:36:09.787Z,68.80
2023-03-03T04:38:38.362Z,68.90
2023-03-03T04:41:06.219Z,68.80
2023-03-03T04:43:37.215Z,68.80
2023-03-03T04:46:05.683Z,69.00
2023-03-03T04:48:34.101Z,69.10
2023-03-03T04:51:01.768Z,69.20
2023-03-03T04:53:29.425Z,69.20
2023-03-03T04:55:57.254Z,69.40
2023-03-03T04:58:24.730Z,69.20
2023-03-03T05:00:55.761Z,69.10
2023-03-03T05:03:23.780Z,69.20
2023-03-03T05:05:51.458Z,69.10
2023-03-03T05:08:19.205Z,69.10
2023-03-03T05:10:46.643Z,69.00
2023-03-03T05:13:16.930Z,69.90
2023-03-03T05:15:49.011Z,69.10
2023-03-03T05:18:16.446Z,69.00
2023-03-03T05:20:43.858Z,68.90
2023-03-03T05:23:11.381Z,68.80
2023-03-03T05:25:41.956Z,68.90
2023-03-03T05:28:10.591Z,69.00
2023-03-03T05:30:38.288Z,68.90
2023-03-03T05:33:06.169Z,69.10
2023-03-03T05:35:34.709Z,69.20
2023-03-03T05:38:05.345Z,69.50
2023-03-03T05:40:33.805Z,69.60
2023-03-03T05:43:02.648Z,69.50
2023-03-03T05:45:30.054Z,69.80
2023-03-03T05:47:57.578Z,70.00
2023-03-03T05:50:25.087Z,69.90
2023-03-03T05:52:53.503Z,69.70
2023-03-03T05:55:21.003Z,69.50
2023-03-03T05:57:48.459Z,69.40
2023-03-03T06:00:17.165Z,69.40
2023-03-03T06:02:44.695Z,69.40
2023-03-03T06:05:12.303Z,69.40
2023-03-03T06:07:40.512Z,69.50
2023-03-03T06:10:08.826Z,69.40
2023-03-03T06:12:39.087Z,69.60
2023-03-03T06:15:07.718Z,70.00
2023-03-03T06:17:35.365Z,70.00
2023-03-03T06:20:04.150Z,70.00
2023-03-03T06:22:31.621Z,70.00
2023-03-03T06:24:59.337Z,70.00
2023-03-03T06:27:27.504Z,70.10
2023-03-03T06:29:54.982Z,70.20
2023-03-03T06:32:22.638Z,70.20
2023-03-03T06:34:50.451Z,70.30
2023-03-03T06:37:18.068Z,70.50
2023-03-03T06:39:45.551Z,71.30
2023-03-03T06:42:13.211Z,70.60
2023-03-03T06:44:40.626Z,70.80
2023-03-03T06:47:07.976Z,71.00
2023-03-03T06:49:35.414Z,71.30
2023-03-03T06:52:12.494Z,72.10
2023-03-03T06:54:40.341Z,73.50
2023-03-03T06:57:17.893Z,74.10
2023-03-03T06:59:46.859Z,74.50
2023-03-03T07:02:17.161Z,74.30
2023-03-03T07:04:47.003Z,73.90
2023-03-03T07:07:24.731Z,73.10
2023-03-03T07:09:57.093Z,72.60
2023-03-03T07:12:28.998Z,71.60
2023-03-03T07:15:13.576Z,70.80
2023-03-03T07:17:51.212Z,69.30
2023-03-03T07:20:33.064Z,67.80
2023-03-03T07:23:00.768Z,66.60
2023-03-03T07:25:35.442Z,64.90
2023-03-03T07:28:26.596Z,64.60
2023-03-03T07:30:56.515Z,63.80
2023-03-03T07:33:35.370Z,62.70
2023-03-03T07:36:04.204Z,61.60
2023-03-03T07:38:31.946Z,61.60
2023-03-03T07:41:02.973Z,61.20
2023-03-03T07:43:51.044Z,60.20
2023-03-03T07:46:22.798Z,59.80
2023-03-03T07:48:52.430Z,58.40
2023-03-03T07:51:36.865Z,57.90
2023-03-03T07:54:40.310Z,56.80
2023-03-03T07:57:20.018Z,56.50
2023-03-03T08:00:00.010Z,56.50
2023-03-03T08:03:00.633Z,55.70
2023-03-03T08:05:30.497Z,54.70
2023-03-03T08:08:11.148Z,54.70
2023-03-03T08:10:52.449Z,53.20
2023-03-03T08:13:25.264Z,53.30
2023-03-03T08:16:00.580Z,52.00
2023-03-03T08:18:30.533Z,49.60
2023-03-03T08:21:17.541Z,49.20
2023-03-03T08:23:45.062Z,48.60
2023-03-03T08:26:14.102Z,48.90
2023-03-03T08:28:41.548Z,48.90
2023-03-03T08:31:18.532Z,48.90
2023-03-03T08:33:52.757Z,49.20
2023-03-03T08:36:20.091Z,49.10
2023-03-03T08:38:47.580Z,49.30
2023-03-03T08:41:15.050Z,49.90
2023-03-03T08:43:45.318Z,50.20
2023-03-03T08:46:12.703Z,50.50
2023-03-03T08:48:40.644Z,49.80
2023-03-03T08:51:08.839Z,48.80
2023-03-03T08:53:38.229Z,49.00
2023-03-03T08:56:06.912Z,49.30
2023-03-03T08:58:35.979Z,49.40
2023-03-03T09:01:04.888Z,49.20
2023-03-03T09:03:32.458Z,48.00
2023-03-03T09:05:59.874Z,47.50
2023-03-03T09:08:27.496Z,46.70
2023-03-03T09:10:54.978Z,46.10
2023-03-03T09:13:22.556Z,46.20
2023-03-03T09:15:50.441Z,46.50
2023-03-03T09:18:31.067Z,46.70
2023-03-03T09:20:58.632Z,46.60
2023-03-03T09:23:36.215Z,46.80
2023-03-03T09:26:26.902Z,47.00
2023-03-03T09:28:56.420Z,47.30
2023-03-03T09:31:39.789Z,48.30
2023-03-03T09:34:22.353Z,48.90
2023-03-03T09:36:52.769Z,49.40
2023-03-03T09:39:25.446Z,49.60
2023-03-03T09:42:04.216Z,50.10
2023-03-03T09:45:09.661Z,50.20
2023-03-03T09:47:46.916Z,50.70
2023-03-03T09:50:29.301Z,50.60
2023-03-03T09:53:24.414Z,51.10
2023-03-03T09:55:59.266Z,51.50
2023-03-03T09:59:18.021Z,52.10
2023-03-03T10:01:54.267Z,53.20
2023-03-03T10:04:47.404Z,52.70
2023-03-03T10:07:38.978Z,52.60
2023-03-03T10:10:34.080Z,53.00
2023-03-03T10:13:07.340Z,52.70
2023-03-03T10:16:00.700Z,52.90
2023-03-03T10:18:45.752Z,53.20
2023-03-03T10:21:25.521Z,53.30
2023-03-03T10:24:03.944Z,53.70
2023-03-03T10:26:44.675Z,53.80
2023-03-03T10:29:22.546Z,53.90
2023-03-03T10:32:49.532Z,54.30
2023-03-03T10:35:35.493Z,54.40
2023-03-03T10:38:32.240Z,54.80
2023-03-03T10:41:35.249Z,54.50
2023-03-03T10:44:22.818Z,54.60
2023-03-03T10:46:58.981Z,54.90
2023-03-03T10:49:41.803Z,55.00
2023-03-03T10:52:31.488Z,55.00
2023-03-03T10:55:23.231Z,55.20
2023-03-03T10:58:07.849Z,55.30
2023-03-03T11:00:44.994Z,55.50
2023-03-03T11:03:33.792Z,55.80
2023-03-03T11:06:33.812Z,55.50
2023-03-03T11:09:30.928Z,55.40
2023-03-03T11:12:28.338Z,55.40
2023-03-03T11:15:04.929Z,55.50
2023-03-03T11:17:47.387Z,55.20
2023-03-03T11:20:33.617Z,55.20
2023-03-03T11:23:25.546Z,55.30
2023-03-03T11:26:24.807Z,55.40
2023-03-03T11:29:01.095Z,55.10
2023-03-03T11:31:38.959Z,55.10
2023-03-03T11:34:26.101Z,54.30
2023-03-03T11:37:04.093Z,54.20
2023-03-03T11:39:32.999Z,54.30
2023-03-03T11:42:19.343Z,54.10
2023-03-03T11:44:51.926Z,53.80
2023-03-03T11:47:35.489Z,53.70
2023-03-03T11:50:11.710Z,53.20
2023-03-03T11:52:43.946Z,53.30
2023-03-03T11:55:31.642Z,53.50
2023-03-03T11:58:20.699Z,53.60
2023-03-03T12:00:58.546Z,53.50
2023-03-03T12:03:45.103Z,53.80
2023-03-03T12:06:40.841Z,53.70
2023-03-03T12:09:17.060Z,53.80
2023-03-03T12:11:54.153Z,54.10
2023-03-03T12:14:45.329Z,53.00
2023-03-03T12:17:32.058Z,52.90
2023-03-03T12:20:23.831Z,53.00
2023-03-03T12:23:32.448Z,52.80
2023-03-03T12:26:08.733Z,52.30
2023-03-03T12:28:41.990Z,52.20
2023-03-03T12:31:38.908Z,52.40
2023-03-03T12:34:23.155Z,52.30
2023-03-03T12:37:07.958Z,52.10
2023-03-03T12:39:35.775Z,51.70
2023-03-03T12:42:29.550Z,51.70
2023-03-03T12:45:16.446Z,52.10
2023-03-03T12:48:07.881Z,52.10
2023-03-03T12:50:47.737Z,52.50
2023-03-03T12:53:57.121Z,52.70
2023-03-03T12:56:32.813Z,52.70
2023-03-03T12:59:42.781Z,52.90
2023-03-03T13:02:32.395Z,52.90
2023-03-03T13:05:24.590Z,53.20
2023-03-03T13:08:09.545Z,53.40
2023-03-03T13:10:54.694Z,53.40
2023-03-03T13:13:34.673Z,53.50
2023-03-03T13:16:17.059Z,53.10
2023-03-03T13:18:51.737Z,53.40
2023-03-03T13:21:48.660Z,53.20
2023-03-03T13:24:37.938Z,53.00
2023-03-03T13:27:10.783Z,52.60
2023-03-03T13:29:43.050Z,52.90
2023-03-03T13:32:17.911Z,53.20
2023-03-03T13:35:07.529Z,53.00
2023-03-03T13:37:43.427Z,53.20
2023-03-03T13:40:17.468Z,53.30
2023-03-03T13:42:47.739Z,53.20
2023-03-03T13:45:27.336Z,53.50
2023-03-03T13:48:35.558Z,53.30
2023-03-03T13:51:31.139Z,53.00
2023-03-03T13:54:24.871Z,53.10
2023-03-03T13:57:24.671Z,52.60
2023-03-03T14:00:26.104Z,52.60
2023-03-03T14:02:53.836Z,52.60
2023-03-03T14:05:36.403Z,52.80
2023-03-03T14:08:12.549Z,52.80
2023-03-03T14:10:52.080Z,53.10
2023-03-03T14:13:26.674Z,53.40
2023-03-03T14:16:21.623Z,53.60
2023-03-03T14:18:59.898Z,53.90
2023-03-03T14:21:38.272Z,53.90
2023-03-03T14:24:17.201Z,54.50
2023-03-03T14:26:52.858Z,53.90
2023-03-03T14:29:26.230Z,53.70
2023-03-03T14:31:55.096Z,53.70
2023-03-03T14:34:23.376Z,53.80
2023-03-03T14:36:57.383Z,53.60
2023-03-03T14:39:38.064Z,53.40
2023-03-03T14:42:38.221Z,53.30
2023-03-03T14:45:30.863Z,53.40
2023-03-03T14:47:59.846Z,53.60
2023-03-03T14:50:41.288Z,53.50
2023-03-03T14:53:19.995Z,53.60
2023-03-03T14:55:53.502Z,53.30
2023-03-03T14:58:31.850Z,53.10
2023-03-03T15:01:32.008Z,53.10
2023-03-03T15:04:03.721Z,53.30
2023-03-03T15:06:42.687Z,53.30
2023-03-03T15:09:33.863Z,53.30
2023-03-03T15:12:03.649Z,53.10
2023-03-03T15:14:44.426Z,53.30
2023-03-03T15:17:27.085Z,53.40
2023-03-03T15:20:22.548Z,53.50
2023-03-03T15:23:18.523Z,53.60
2023-03-03T15:26:28.134Z,53.50
2023-03-03T15:29:07.262Z,53.60
2023-03-03T15:31:59.532Z,53.40
2023-03-03T15:34:35.893Z,53.60
2023-03-03T15:37:12.320Z,53.70
2023-03-03T15:39:59.057Z,53.70
2023-03-03T15:42:39.907Z,54.00
2023-03-03T15:45:26.080Z,54.10
2023-03-03T15:48:29.629Z,54.30
2023-03-03T15:51:00.050Z,54.70
2023-03-03T15:53:58.091Z,54.90
2023-03-03T15:56:36.251Z,54.80
2023-03-03T15:59:25.119Z,54.90
2023-03-03T16:02:16.547Z,55.00
2023-03-03T16:04:58.237Z,55.10
2023-03-03T16:07:53.178Z,55.40
2023-03-03T16:10:58.012Z,55.70
2023-03-03T16:13:46.305Z,56.00
2023-03-03T16:16:35.510Z,56.10
2023-03-03T16:19:15.042Z,56.20
2023-03-03T16:22:03.430Z,56.50
2023-03-03T16:24:55.774Z,56.50
2023-03-03T16:27:35.920Z,56.90
2023-03-03T16:30:26.857Z,57.00
2023-03-03T16:33:10.788Z,57.00
2023-03-03T16:35:44.889Z,57.10
2023-03-03T16:38:22.578Z,57.30
2023-03-03T16:40:52.701Z,57.30
2023-03-03T16:43:19.928Z,57.30
2023-03-03T16:45:48.388Z,57.60
2023-03-03T16:48:43.550Z,57.60
2023-03-03T16:51:22.469Z,57.90
2023-03-03T16:54:03.063Z,57.80
2023-03-03T16:56:55.653Z,58.20
2023-03-03T16:59:39.154Z,58.30
2023-03-03T17:02:19.351Z,58.40
2023-03-03T17:05:03.166Z,58.50
2023-03-03T17:07:54.859Z,58.80
2023-03-03T17:10:39.559Z,58.60
2023-03-03T17:13:40.772Z,58.80
2023-03-03T17:16:26.233Z,59.00
2023-03-03T17:19:05.578Z,58.80
2023-03-03T17:22:03.837Z,59.00
2023-03-03T17:24:56.385Z,59.30
2023-03-03T17:27:38.267Z,59.70
2023-03-03T17:30:14.879Z,59.70
2023-03-03T17:33:15.760Z,59.80
2023-03-03T17:35:57.229Z,60.10
2023-03-03T17:38:30.854Z,59.70
2023-03-03T17:41:24.685Z,59.70
2023-03-03T17:44:38.134Z,60.00
2023-03-03T17:47:10.006Z,60.40
2023-03-03T17:49:55.250Z,60.10
2023-03-03T17:52:38.418Z,60.30
2023-03-03T17:55:29.750Z,60.40
2023-03-03T17:58:18.760Z,60.60
2023-03-03T18:01:08.077Z,60.50
2023-03-03T18:03:47.669Z,60.90
2023-03-03T18:06:39.135Z,61.20
2023-03-03T18:09:37.467Z,61.20
2023-03-03T18:12:48.309Z,61.20
2023-03-03T18:15:24.289Z,61.30
2023-03-03T18:18:38.382Z,61.00
2023-03-03T18:21:21.124Z,61.50
2023-03-03T18:23:49.393Z,61.30
2023-03-03T18:26:28.883Z,61.30
2023-03-03T18:29:19.838Z,61.70
2023-03-03T18:31:53.227Z,62.10
2023-03-03T18:34:20.666Z,62.20
2023-03-03T18:37:21.742Z,62.30
2023-03-03T18:40:10.350Z,62.70
2023-03-03T18:42:38.104Z,62.30
2023-03-03T18:45:21.424Z,62.30
2023-03-03T18:48:11.352Z,62.50
2023-03-03T18:50:41.442Z,62.70
2023-03-03T18:53:29.532Z,62.60
2023-03-03T18:56:01.929Z,63.30
2023-03-03T18:58:43.393Z,62.80
2023-03-03T19:01:11.095Z,63.20
2023-03-03T19:04:02.357Z,63.00
2023-03-03T19:06:52.595Z,63.70
2023-03-03T19:09:41.083Z,64.00
2023-03-03T19:12:10.872Z,63.90
2023-03-03T19:14:42.218Z,63.70
2023-03-03T19:17:20.351Z,63.80
2023-03-03T19:20:14.196Z,64.00
2023-03-03T19:22:44.730Z,64.10
2023-03-03T19:25:12.386Z,63.70
2023-03-03T19:27:48.476Z,63.90
2023-03-03T19:30:42.051Z,64.00
2023-03-03T19:33:21.530Z,64.10
2023-03-03T19:36:13.571Z,64.10
2023-03-03T19:39:06.003Z,64.00
2023-03-03T19:42:02.359Z,64.20
2023-03-03T19:44:49.683Z,64.20
2023-03-03T19:47:47.769Z,64.00
2023-03-03T19:50:25.261Z,64.30
2023-03-03T19:53:07.535Z,64.10
2023-03-03T19:56:03.048Z,64.20
2023-03-03T19:59:09.556Z,64.30
2023-03-03T20:01:46.878Z,64.30
2023-03-03T20:04:23.233Z,64.20
2023-03-03T20:06:56.533Z,64.10
2023-03-03T20:09:28.934Z,64.30
2023-03-03T20:12:14.622Z,64.30
2023-03-03T20:14:49.055Z,64.60
2023-03-03T20:17:44.561Z,64.50
2023-03-03T20:20:23.926Z,64.90
2023-03-03T20:23:16.810Z,64.70
2023-03-03T20:25:48.165Z,64.80
2023-03-03T20:28:53.873Z,64.80
2023-03-03T20:32:07.603Z,65.00
2023-03-03T20:35:12.768Z,65.30
2023-03-03T20:37:52.260Z,65.10
2023-03-03T20:40:39.805Z,64.80
2023-03-03T20:43:27.237Z,65.60
2023-03-03T20:46:23.690Z,65.50
2023-03-03T20:49:11.344Z,65.70
2023-03-03T20:51:47.545Z,65.40
2023-03-03T20:54:21.932Z,65.40
2023-03-03T20:57:00.729Z,65.40
2023-03-03T20:59:37.585Z,65.40
2023-03-03T21:02:26.990Z,65.30
2023-03-03T21:05:26.400Z,65.40
2023-03-03T21:08:04.313Z,65.40
2023-03-03T21:10:36.490Z,65.10
2023-03-03T21:13:32.449Z,65.30
2023-03-03T21:16:03.667Z,65.70
2023-03-03T21:18:31.823Z,65.60
2023-03-03T21:20:59.309Z,65.50
2023-03-03T21:23:26.628Z,65.50
2023-03-03T21:25:55.280Z,65.30
2023-03-03T21:28:31.959Z,65.40
2023-03-03T21:31:17.223Z,65.50
2023-03-03T21:33:44.556Z,65.60
2023-03-03T21:36:14.722Z,65.50
2023-03-03T21:38:42.608Z,65.50
2023-03-03T21:41:10.021Z,65.50
2023-03-03T21:43:40.121Z,65.60
2023-03-03T21:46:07.750Z,65.70
2023-03-03T21:48:35.112Z,65.80
2023-03-03T21:51:02.642Z,65.80
2023-03-03T21:53:30.539Z,65.80
2023-03-03T21:55:58.205Z,65.80
2023-03-03T21:58:25.575Z,65.90
2023-03-03T22:00:53.028Z,65.90
2023-03-03T22:03:20.807Z,66.00
2023-03-03T22:05:51.247Z,66.30
2023-03-03T22:08:22.502Z,66.30
2023-03-03T22:10:53.757Z,66.20
2023-03-03T22:13:21.611Z,66.30
2023-03-03T22:15:49.312Z,66.60
2023-03-03T22:18:18.305Z,66.60
2023-03-03T22:20:46.935Z,66.60
2023-03-03T22:23:15.129Z,66.70
2023-03-03T22:25:42.773Z,66.60
2023-03-03T22:28:10.225Z,66.70
2023-03-03T22:30:37.599Z,66.60
2023-03-03T22:33:05.014Z,66.60
2023-03-03T22:35:32.513Z,66.60
2023-03-03T22:38:00.058Z,66.60
2023-03-03T22:40:27.419Z,66.70
2023-03-03T22:42:54.702Z,66.70
2023-03-03T22:45:22.076Z,66.70
2023-03-03T22:47:49.539Z,66.60
2023-03-03T22:50:17.562Z,66.70
2023-03-03T22:52:45.138Z,66.80
2023-03-03T22:55:13.321Z,66.90
2023-03-03T22:57:40.826Z,67.00
2023-03-03T23:00:11.711Z,66.90
2023-03-03T23:02:39.612Z,67.20
2023-03-03T23:05:09.995Z,67.10
2023-03-03T23:07:39.803Z,67.00
2023-03-03T23:10:08.701Z,67.10
2023-03-03T23:12:36.041Z,67.10
2023-03-03T23:15:06.375Z,67.00
2023-03-03T23:17:33.564Z,67.00
2023-03-03T23:20:00.918Z,67.00
2023-03-03T23:22:28.131Z,67.10
2023-03-03T23:24:55.346Z,67.30
2023-03-03T23:27:22.781Z,67.40
2023-03-03T23:29:50.229Z,67.30
2023-03-03T23:32:17.899Z,67.30
2023-03-03T23:34:45.178Z,67.20
2023-03-03T23:37:12.578Z,67.30
2023-03-03T23:39:40.932Z,67.30
2023-03-03T23:42:08.158Z,67.30
2023-03-03T23:44:37.506Z,67.40
2023-03-03T23:47:06.031Z,67.40
2023-03-03T23:49:33.878Z,67.40
2023-03-03T23:52:02.050Z,67.50
2023-03-03T23:54:29.478Z,67.50
2023-03-03T23:56:57.008Z,67.60
2023-03-03T23:59:24.230Z,67.60
